Haugen, WI (54841)

4:01 AM CST on December 08, 2016 (GMT -0600)
Shell Lake | | Change Station

Elev 1230 ft 45.72 °N, 91.89 °W | Updated 40 seconds ago

Snow
Snow
17.2 °F
Feels Like 9 °F
N
6.1
Wind Variable Wind from West
Gusts 13.0 mph

Today
High -- | Low -- °F
--% Chance of Precip.
Yesterday
High -- | Low -- °F
Precip. -- in
Pressure 30.07 in
Visibility 1.5 miles
Clouds Overcast 2000 ft
Windchill 9 °F
Dew Point 14 °F
Humidity 85%
Rainfall 0.00 in
Snow Depth Not available.
7:35 AM 4:23 PM
First Quarter, 62% visible
METAR KUBE 080955Z AUTO 28012KT 1 1/2SM -SN OVC020 M08/M10 A3007 RMK AO2
Pressure 30.07 in
Visibility 1.5 miles
Clouds Overcast 2000 ft
Windchill 9 °F
Dew Point 14 °F
Humidity 85%
Rainfall 0.00 in
Snow Depth Not available.
7:35 AM 4:23 PM
First Quarter, 62% visible
METAR KUBE 080955Z AUTO 28012KT 1 1/2SM -SN OVC020 M08/M10 A3007 RMK AO2

10-Day Weather Forecast

Almanac

Astronomy

Dec. 08, 2016 Rise Set
Actual Time
Civil Twilight
Nautical Twilight
Astronomical Twilight
Moon
Length of Visible Light
Length of Day
Tomorrow will be .
, % of the Moon is Illuminated

Today's Extremes

State Highs State Lows

Community

WunderPhotos

Upload Photos

1,956,261 photos uploaded!

WunderBlog® & News

Nearby

Air Quality

  Air Quality AQ Index Pollutant
Not available.

Snow Depth

Station Depth Elevation

Earthquake Activity

City Distance Mag. Time & Date
Minimum magnitude displayed is 2.5.

Coastal Water Temperatures

Place Temperature

Stations

Nearby Weather Stations

Station Location Temp. Windchill Dew Point Humidity Wind Precip. Elev Updated Type
                   

Watches & Warnings

There are currently no watches in effect.